AKX627 RJTT-RJFK
Flight info
| Callsign | AKX627 |
|---|---|
| Flight time | 1h 35m |
| Altitude | 30000 |
| Route | LAXAS Y56 TOHME Y54 TURFY Y24 SUC Y757 SPICA |
| Aircraft | B738/M-SDE2E3FGHIRWXY/LB1 |
Departure
| Time | 2026-05-05 07:44 |
|---|---|
| Airport | Tokyo Haneda International Airport (RJTT) |
Arrival
| Time | 2026-05-05 09:19 |
|---|---|
| Airport | Kagoshima Airport (RJFK) |
| Time | Latitude | Longitude | Altitude | Speed | Heading |
|---|---|---|---|---|---|
| 2026-05-05 07:00 | 35.55702 | 139.78519 | 23 ft | 0 kts | 240° |
| 2026-05-05 07:34 | 35.55707 | 139.78530 | 23 ft | 2 kts | 239° |
| 2026-05-05 07:35 | 35.55715 | 139.78548 | 27 ft | 2 kts | 240° |
| 2026-05-05 07:35 | 35.55723 | 139.78565 | 27 ft | 2 kts | 240° |
| 2026-05-05 07:35 | 35.55731 | 139.78582 | 26 ft | 2 kts | 241° |
| 2026-05-05 07:35 | 35.55736 | 139.78601 | 27 ft | 2 kts | 271° |
| 2026-05-05 07:36 | 35.55734 | 139.78621 | 27 ft | 2 kts | 286° |
| 2026-05-05 07:36 | 35.55728 | 139.78640 | 26 ft | 2 kts | 306° |
| 2026-05-05 07:36 | 35.55724 | 139.78646 | 27 ft | 0 kts | 324° |
| 2026-05-05 07:38 | 35.55732 | 139.78640 | 25 ft | 3 kts | 330° |
| 2026-05-05 07:38 | 35.55756 | 139.78624 | 24 ft | 5 kts | 330° |
| 2026-05-05 07:39 | 35.55797 | 139.78594 | 23 ft | 10 kts | 330° |
| 2026-05-05 07:39 | 35.55872 | 139.78543 | 23 ft | 14 kts | 330° |
| 2026-05-05 07:39 | 35.55965 | 139.78478 | 23 ft | 16 kts | 329° |
| 2026-05-05 07:39 | 35.56058 | 139.78411 | 23 ft | 15 kts | 330° |
| 2026-05-05 07:40 | 35.56148 | 139.78348 | 25 ft | 15 kts | 330° |
| 2026-05-05 07:40 | 35.56234 | 139.78287 | 25 ft | 14 kts | 329° |
| 2026-05-05 07:40 | 35.56314 | 139.78229 | 22 ft | 13 kts | 334° |
| 2026-05-05 07:40 | 35.56390 | 139.78265 | 22 ft | 13 kts | 57° |
| 2026-05-05 07:41 | 35.56433 | 139.78356 | 24 ft | 13 kts | 59° |
| 2026-05-05 07:41 | 35.56475 | 139.78448 | 24 ft | 12 kts | 60° |
| 2026-05-05 07:41 | 35.56518 | 139.78533 | 22 ft | 10 kts | 59° |
| 2026-05-05 07:41 | 35.56528 | 139.78555 | 23 ft | 0 kts | 59° |
| 2026-05-05 07:43 | 35.56535 | 139.78570 | 24 ft | 9 kts | 59° |
| 2026-05-05 07:43 | 35.56539 | 139.78690 | 24 ft | 17 kts | 136° |
| 2026-05-05 07:43 | 35.56284 | 139.78873 | 25 ft | 84 kts | 150° |
| 2026-05-05 07:44 | 35.55543 | 139.79405 | 68 ft | 157 kts | 150° |
| 2026-05-05 07:44 | 35.54536 | 139.80163 | 649 ft | 184 kts | 151° |
| 2026-05-05 07:44 | 35.53388 | 139.81019 | 1466 ft | 200 kts | 152° |
| 2026-05-05 07:44 | 35.52148 | 139.81903 | 2289 ft | 204 kts | 153° |
| 2026-05-05 07:45 | 35.50920 | 139.82742 | 3048 ft | 201 kts | 153° |
| 2026-05-05 07:45 | 35.50109 | 139.83298 | 3521 ft | 201 kts | 152° |
| 2026-05-05 07:45 | 35.48859 | 139.84163 | 4001 ft | 210 kts | 151° |
| 2026-05-05 07:45 | 35.47561 | 139.85071 | 4530 ft | 219 kts | 152° |
| 2026-05-05 07:46 | 35.46212 | 139.86021 | 5034 ft | 229 kts | 153° |
| 2026-05-05 07:46 | 35.44666 | 139.86608 | 5496 ft | 240 kts | 183° |
| 2026-05-05 07:46 | 35.43143 | 139.86059 | 6228 ft | 237 kts | 213° |
| 2026-05-05 07:46 | 35.41792 | 139.84887 | 6986 ft | 240 kts | 219° |
| 2026-05-05 07:47 | 35.40473 | 139.83580 | 7598 ft | 247 kts | 223° |
| 2026-05-05 07:47 | 35.39119 | 139.82225 | 8232 ft | 256 kts | 218° |
| 2026-05-05 07:47 | 35.37705 | 139.80847 | 8875 ft | 263 kts | 222° |
| 2026-05-05 07:47 | 35.36243 | 139.79434 | 9528 ft | 271 kts | 220° |
| 2026-05-05 07:48 | 35.34728 | 139.78014 | 10183 ft | 278 kts | 221° |
| 2026-05-05 07:48 | 35.33197 | 139.76514 | 10793 ft | 285 kts | 221° |
| 2026-05-05 07:48 | 35.31619 | 139.74992 | 11401 ft | 291 kts | 221° |
| 2026-05-05 07:48 | 35.30039 | 139.73407 | 12025 ft | 296 kts | 223° |
| 2026-05-05 07:49 | 35.28465 | 139.71766 | 12651 ft | 298 kts | 223° |
| 2026-05-05 07:49 | 35.26886 | 139.70106 | 13294 ft | 300 kts | 223° |
| 2026-05-05 07:49 | 35.25303 | 139.68440 | 13946 ft | 303 kts | 223° |
| 2026-05-05 07:49 | 35.23698 | 139.66756 | 14534 ft | 308 kts | 223° |
| 2026-05-05 07:50 | 35.22104 | 139.65088 | 15117 ft | 312 kts | 223° |
| 2026-05-05 07:50 | 35.20443 | 139.63352 | 15729 ft | 316 kts | 223° |
| 2026-05-05 07:50 | 35.18760 | 139.61595 | 16348 ft | 320 kts | 223° |
| 2026-05-05 07:50 | 35.17079 | 139.59842 | 16994 ft | 323 kts | 223° |
| 2026-05-05 07:51 | 35.15362 | 139.58052 | 17633 ft | 326 kts | 223° |
| 2026-05-05 07:51 | 35.13618 | 139.56234 | 18158 ft | 332 kts | 224° |
| 2026-05-05 07:51 | 35.11841 | 139.54385 | 18675 ft | 338 kts | 224° |
| 2026-05-05 07:51 | 35.10034 | 139.52508 | 19161 ft | 343 kts | 224° |
| 2026-05-05 07:52 | 35.08293 | 139.50536 | 19614 ft | 345 kts | 234° |
| 2026-05-05 07:52 | 35.07111 | 139.47967 | 20121 ft | 344 kts | 252° |
| 2026-05-05 07:52 | 35.06526 | 139.45281 | 20605 ft | 345 kts | 259° |
| 2026-05-05 07:52 | 35.06056 | 139.42399 | 21103 ft | 348 kts | 259° |
| 2026-05-05 07:53 | 35.05608 | 139.39502 | 21605 ft | 346 kts | 259° |
| 2026-05-05 07:53 | 35.05156 | 139.36622 | 22104 ft | 344 kts | 259° |
| 2026-05-05 07:53 | 35.04694 | 139.33759 | 22632 ft | 343 kts | 259° |
| 2026-05-05 07:53 | 35.04225 | 139.30919 | 23160 ft | 341 kts | 258° |
| 2026-05-05 07:54 | 35.03752 | 139.28099 | 23718 ft | 338 kts | 258° |
| 2026-05-05 07:54 | 35.03276 | 139.25288 | 24164 ft | 337 kts | 258° |
| 2026-05-05 07:54 | 35.02803 | 139.22480 | 24624 ft | 338 kts | 258° |
| 2026-05-05 07:54 | 35.02335 | 139.19668 | 25088 ft | 338 kts | 258° |
| 2026-05-05 07:55 | 35.01867 | 139.16853 | 25559 ft | 338 kts | 258° |
| 2026-05-05 07:55 | 35.01406 | 139.14078 | 26031 ft | 338 kts | 257° |
| 2026-05-05 07:55 | 35.00942 | 139.11275 | 26514 ft | 337 kts | 257° |
| 2026-05-05 07:55 | 35.00479 | 139.08490 | 27031 ft | 333 kts | 257° |
| 2026-05-05 07:56 | 35.00022 | 139.05740 | 27524 ft | 326 kts | 257° |
| 2026-05-05 07:56 | 34.99575 | 139.03055 | 28026 ft | 320 kts | 257° |
| 2026-05-05 07:56 | 34.99133 | 139.00422 | 28554 ft | 314 kts | 256° |
| 2026-05-05 07:56 | 34.98751 | 138.97812 | 29068 ft | 311 kts | 261° |
| 2026-05-05 07:57 | 34.98600 | 138.95217 | 29620 ft | 309 kts | 262° |
| 2026-05-05 07:57 | 34.98469 | 138.92677 | 30131 ft | 306 kts | 262° |
| 2026-05-05 07:57 | 34.98203 | 138.87559 | 30222 ft | 321 kts | 262° |
| 2026-05-05 07:58 | 34.97914 | 138.81998 | 30251 ft | 334 kts | 262° |
| 2026-05-05 07:58 | 34.97605 | 138.76212 | 30226 ft | 349 kts | 262° |
| 2026-05-05 07:59 | 34.97282 | 138.70219 | 30220 ft | 360 kts | 262° |
| 2026-05-05 07:59 | 34.96951 | 138.64088 | 30198 ft | 363 kts | 262° |
| 2026-05-05 08:00 | 34.96617 | 138.57936 | 30216 ft | 363 kts | 262° |
| 2026-05-05 08:00 | 34.96281 | 138.51833 | 30229 ft | 363 kts | 262° |
| 2026-05-05 08:01 | 34.95940 | 138.45722 | 30228 ft | 363 kts | 262° |
| 2026-05-05 08:01 | 34.95595 | 138.39576 | 30218 ft | 362 kts | 262° |
| 2026-05-05 08:02 | 34.95250 | 138.33456 | 30217 ft | 361 kts | 262° |
| 2026-05-05 08:02 | 34.94906 | 138.27367 | 30225 ft | 360 kts | 262° |
| 2026-05-05 08:03 | 34.94555 | 138.21279 | 30214 ft | 360 kts | 262° |
| 2026-05-05 08:03 | 34.94196 | 138.15195 | 30214 ft | 360 kts | 262° |
| 2026-05-05 08:04 | 34.93838 | 138.09135 | 30210 ft | 360 kts | 262° |
| 2026-05-05 08:04 | 34.93479 | 138.03045 | 30214 ft | 360 kts | 262° |
| 2026-05-05 08:05 | 34.93124 | 137.96952 | 30199 ft | 361 kts | 262° |
| 2026-05-05 08:05 | 34.92760 | 137.90844 | 30220 ft | 362 kts | 262° |
| 2026-05-05 08:06 | 34.92393 | 137.84721 | 30224 ft | 362 kts | 262° |
| 2026-05-05 08:06 | 34.92029 | 137.78591 | 30182 ft | 363 kts | 263° |
| 2026-05-05 08:07 | 34.91672 | 137.72455 | 30214 ft | 364 kts | 263° |
| 2026-05-05 08:07 | 34.90975 | 137.66403 | 30228 ft | 362 kts | 254° |
| 2026-05-05 08:08 | 34.89290 | 137.60612 | 30183 ft | 363 kts | 250° |
| 2026-05-05 08:08 | 34.87539 | 137.54835 | 30207 ft | 364 kts | 250° |
| 2026-05-05 08:09 | 34.85790 | 137.49050 | 30221 ft | 364 kts | 250° |
| 2026-05-05 08:09 | 34.84070 | 137.43212 | 30207 ft | 366 kts | 251° |
| 2026-05-05 08:10 | 34.82406 | 137.37350 | 30196 ft | 366 kts | 251° |
| 2026-05-05 08:10 | 34.80753 | 137.31531 | 30204 ft | 365 kts | 251° |
| 2026-05-05 08:11 | 34.79083 | 137.25681 | 30199 ft | 365 kts | 251° |
| 2026-05-05 08:11 | 34.77411 | 137.19841 | 30202 ft | 365 kts | 251° |
| 2026-05-05 08:12 | 34.75740 | 137.14015 | 30199 ft | 365 kts | 251° |
| 2026-05-05 08:12 | 34.74081 | 137.08237 | 30215 ft | 364 kts | 251° |
| 2026-05-05 08:13 | 34.72406 | 137.02423 | 30204 ft | 364 kts | 251° |
| 2026-05-05 08:13 | 34.70545 | 136.96696 | 30190 ft | 365 kts | 244° |
| 2026-05-05 08:14 | 34.67772 | 136.91501 | 30204 ft | 368 kts | 236° |
| 2026-05-05 08:14 | 34.64611 | 136.86653 | 30196 ft | 369 kts | 236° |
| 2026-05-05 08:15 | 34.61414 | 136.81769 | 30172 ft | 369 kts | 236° |
| 2026-05-05 08:15 | 34.58230 | 136.76882 | 30194 ft | 370 kts | 236° |
| 2026-05-05 08:16 | 34.55031 | 136.71963 | 30207 ft | 372 kts | 236° |
| 2026-05-05 08:16 | 34.51820 | 136.67025 | 30205 ft | 374 kts | 236° |
| 2026-05-05 08:17 | 34.48593 | 136.62068 | 30203 ft | 375 kts | 236° |
| 2026-05-05 08:17 | 34.45347 | 136.57088 | 30197 ft | 377 kts | 236° |
| 2026-05-05 08:18 | 34.42116 | 136.52089 | 30225 ft | 375 kts | 236° |
| 2026-05-05 08:18 | 34.38903 | 136.47162 | 30229 ft | 376 kts | 236° |
| 2026-05-05 08:19 | 34.35647 | 136.42211 | 30177 ft | 375 kts | 236° |
| 2026-05-05 08:19 | 34.32402 | 136.37272 | 30238 ft | 374 kts | 235° |
| 2026-05-05 08:20 | 34.29082 | 136.32390 | 30173 ft | 378 kts | 235° |
| 2026-05-05 08:20 | 34.27462 | 136.29926 | 30318 ft | 380 kts | 233° |
| 2026-05-05 08:20 | 34.25700 | 136.27498 | 30024 ft | 388 kts | 234° |
| 2026-05-05 08:21 | 34.22408 | 136.22537 | 30122 ft | 378 kts | 236° |
| 2026-05-05 08:21 | 34.19215 | 136.17494 | 30199 ft | 378 kts | 236° |
| 2026-05-05 08:22 | 34.16011 | 136.12458 | 30330 ft | 382 kts | 234° |
| 2026-05-05 08:22 | 34.14323 | 136.09968 | 30213 ft | 386 kts | 235° |
| 2026-05-05 08:22 | 34.12665 | 136.07458 | 30096 ft | 376 kts | 236° |
| 2026-05-05 08:23 | 34.09446 | 136.02513 | 30169 ft | 375 kts | 236° |
| 2026-05-05 08:23 | 34.06216 | 135.97597 | 30199 ft | 374 kts | 236° |
| 2026-05-05 08:24 | 34.02886 | 135.92764 | 30128 ft | 370 kts | 234° |
| 2026-05-05 08:24 | 33.99749 | 135.87997 | 30230 ft | 367 kts | 236° |
| 2026-05-05 08:25 | 33.98250 | 135.85479 | 29869 ft | 371 kts | 239° |
| 2026-05-05 08:25 | 33.96782 | 135.82949 | 30202 ft | 370 kts | 237° |
| 2026-05-05 08:25 | 33.95267 | 135.80393 | 30075 ft | 375 kts | 236° |
| 2026-05-05 08:25 | 33.93620 | 135.77947 | 30192 ft | 380 kts | 233° |
| 2026-05-05 08:26 | 33.90083 | 135.73143 | 30185 ft | 384 kts | 234° |
| 2026-05-05 08:26 | 33.88384 | 135.70660 | 30081 ft | 385 kts | 234° |
| 2026-05-05 08:26 | 33.86699 | 135.68177 | 30106 ft | 382 kts | 234° |
| 2026-05-05 08:27 | 33.84997 | 135.65735 | 30284 ft | 379 kts | 233° |
| 2026-05-05 08:27 | 33.83270 | 135.63308 | 30128 ft | 381 kts | 234° |
| 2026-05-05 08:27 | 33.80058 | 135.58413 | 30274 ft | 371 kts | 236° |
| 2026-05-05 08:28 | 33.76948 | 135.53524 | 30601 ft | 363 kts | 236° |
| 2026-05-05 08:28 | 33.75370 | 135.51170 | 30991 ft | 360 kts | 234° |
| 2026-05-05 08:28 | 33.73772 | 135.48869 | 31354 ft | 357 kts | 233° |
| 2026-05-05 08:29 | 33.72126 | 135.46636 | 31696 ft | 354 kts | 236° |
| 2026-05-05 08:29 | 33.70592 | 135.44340 | 31988 ft | 353 kts | 233° |
| 2026-05-05 08:30 | 33.65873 | 135.37628 | 32783 ft | 346 kts | 237° |
| 2026-05-05 08:30 | 33.64447 | 135.35323 | 33209 ft | 342 kts | 236° |
| 2026-05-05 08:30 | 33.62995 | 135.33081 | 33586 ft | 338 kts | 235° |
| 2026-05-05 08:30 | 33.61545 | 135.30884 | 33973 ft | 334 kts | 235° |
| 2026-05-05 08:31 | 33.60096 | 135.28712 | 34169 ft | 335 kts | 235° |
| 2026-05-05 08:31 | 33.57173 | 135.24363 | 34182 ft | 343 kts | 234° |
| 2026-05-05 08:32 | 33.54163 | 135.19914 | 34181 ft | 342 kts | 234° |
| 2026-05-05 08:32 | 33.52660 | 135.17697 | 33860 ft | 344 kts | 234° |
| 2026-05-05 08:32 | 33.51156 | 135.15480 | 33456 ft | 342 kts | 234° |
| 2026-05-05 08:32 | 33.49649 | 135.13258 | 32930 ft | 345 kts | 234° |
| 2026-05-05 08:33 | 33.48636 | 135.11766 | 32599 ft | 348 kts | 235° |
| 2026-05-05 08:33 | 33.47095 | 135.09494 | 32094 ft | 355 kts | 235° |
| 2026-05-05 08:33 | 33.45520 | 135.07176 | 31603 ft | 361 kts | 235° |
| 2026-05-05 08:33 | 33.43924 | 135.04827 | 31131 ft | 366 kts | 236° |
| 2026-05-05 08:34 | 33.42304 | 135.02448 | 30654 ft | 371 kts | 236° |
| 2026-05-05 08:34 | 33.40654 | 135.00025 | 30024 ft | 378 kts | 236° |
| 2026-05-05 08:34 | 33.38981 | 134.97561 | 29361 ft | 383 kts | 235° |
| 2026-05-05 08:34 | 33.37307 | 134.95089 | 28706 ft | 388 kts | 235° |
| 2026-05-05 08:35 | 33.35597 | 134.92563 | 28055 ft | 392 kts | 235° |
| 2026-05-05 08:35 | 33.33868 | 134.90013 | 27421 ft | 395 kts | 235° |
| 2026-05-05 08:35 | 33.32126 | 134.87446 | 26794 ft | 398 kts | 234° |
| 2026-05-05 08:35 | 33.30374 | 134.84866 | 26397 ft | 402 kts | 234° |
| 2026-05-05 08:36 | 33.28607 | 134.82265 | 26290 ft | 404 kts | 234° |
| 2026-05-05 08:36 | 33.26827 | 134.79647 | 26219 ft | 407 kts | 234° |
| 2026-05-05 08:36 | 33.25039 | 134.77019 | 26200 ft | 408 kts | 234° |
| 2026-05-05 08:36 | 33.23245 | 134.74384 | 26192 ft | 408 kts | 234° |
| 2026-05-05 08:37 | 33.21453 | 134.71754 | 26186 ft | 408 kts | 234° |
| 2026-05-05 08:37 | 33.19661 | 134.69126 | 26188 ft | 408 kts | 234° |
| 2026-05-05 08:37 | 33.17933 | 134.66453 | 26177 ft | 405 kts | 239° |
| 2026-05-05 08:37 | 33.16524 | 134.63562 | 26190 ft | 404 kts | 244° |
| 2026-05-05 08:38 | 33.15384 | 134.60542 | 26201 ft | 403 kts | 250° |
| 2026-05-05 08:38 | 33.14559 | 134.57343 | 26202 ft | 403 kts | 254° |
| 2026-05-05 08:38 | 33.13788 | 134.54134 | 26195 ft | 403 kts | 254° |
| 2026-05-05 08:38 | 33.13010 | 134.50920 | 26190 ft | 403 kts | 253° |
| 2026-05-05 08:39 | 33.12228 | 134.47714 | 26189 ft | 403 kts | 253° |
| 2026-05-05 08:39 | 33.11439 | 134.44508 | 26194 ft | 403 kts | 253° |
| 2026-05-05 08:39 | 33.10646 | 134.41296 | 26186 ft | 403 kts | 253° |
| 2026-05-05 08:39 | 33.09852 | 134.38090 | 26193 ft | 404 kts | 253° |
| 2026-05-05 08:40 | 33.09053 | 134.34871 | 26194 ft | 404 kts | 253° |
| 2026-05-05 08:40 | 33.08253 | 134.31653 | 26195 ft | 404 kts | 253° |
| 2026-05-05 08:40 | 33.07454 | 134.28436 | 26194 ft | 405 kts | 253° |
| 2026-05-05 08:40 | 33.06651 | 134.25214 | 26193 ft | 405 kts | 253° |
| 2026-05-05 08:41 | 33.05849 | 134.21986 | 26206 ft | 406 kts | 253° |
| 2026-05-05 08:41 | 33.05062 | 134.18757 | 26199 ft | 406 kts | 253° |
| 2026-05-05 08:41 | 33.04292 | 134.15566 | 26173 ft | 406 kts | 253° |
| 2026-05-05 08:41 | 33.03512 | 134.12328 | 26178 ft | 406 kts | 253° |
| 2026-05-05 08:42 | 33.02730 | 134.09090 | 26183 ft | 406 kts | 253° |
| 2026-05-05 08:42 | 33.01946 | 134.05853 | 26188 ft | 407 kts | 253° |
| 2026-05-05 08:42 | 33.01162 | 134.02619 | 26208 ft | 407 kts | 253° |
| 2026-05-05 08:42 | 33.00372 | 133.99372 | 26201 ft | 407 kts | 253° |
| 2026-05-05 08:43 | 32.99582 | 133.96129 | 26191 ft | 407 kts | 253° |
| 2026-05-05 08:43 | 32.98792 | 133.92890 | 26187 ft | 407 kts | 253° |
| 2026-05-05 08:43 | 32.98000 | 133.89647 | 26186 ft | 406 kts | 253° |
| 2026-05-05 08:43 | 32.97209 | 133.86412 | 26171 ft | 406 kts | 253° |
| 2026-05-05 08:44 | 32.96418 | 133.83181 | 26179 ft | 406 kts | 253° |
| 2026-05-05 08:44 | 32.95635 | 133.79989 | 26197 ft | 406 kts | 253° |
| 2026-05-05 08:44 | 32.94843 | 133.76760 | 26191 ft | 406 kts | 253° |
| 2026-05-05 08:44 | 32.94048 | 133.73525 | 26188 ft | 406 kts | 253° |
| 2026-05-05 08:45 | 32.93253 | 133.70295 | 26189 ft | 407 kts | 253° |
| 2026-05-05 08:45 | 32.92459 | 133.67068 | 26188 ft | 406 kts | 253° |
| 2026-05-05 08:45 | 32.91667 | 133.63856 | 26189 ft | 406 kts | 253° |
| 2026-05-05 08:45 | 32.90871 | 133.60628 | 26200 ft | 406 kts | 253° |
| 2026-05-05 08:46 | 32.90081 | 133.57436 | 26164 ft | 406 kts | 253° |
| 2026-05-05 08:46 | 32.89282 | 133.54212 | 26182 ft | 406 kts | 253° |
| 2026-05-05 08:46 | 32.88479 | 133.50987 | 26184 ft | 406 kts | 253° |
| 2026-05-05 08:46 | 32.87686 | 133.47802 | 26189 ft | 407 kts | 253° |
| 2026-05-05 08:47 | 32.86869 | 133.44530 | 26192 ft | 407 kts | 253° |
| 2026-05-05 08:47 | 32.86073 | 133.41342 | 26205 ft | 408 kts | 253° |
| 2026-05-05 08:47 | 32.85264 | 133.38102 | 26192 ft | 408 kts | 253° |
| 2026-05-05 08:47 | 32.84454 | 133.34865 | 26188 ft | 407 kts | 253° |
| 2026-05-05 08:48 | 32.83645 | 133.31634 | 26183 ft | 407 kts | 253° |
| 2026-05-05 08:48 | 32.82864 | 133.28519 | 26162 ft | 407 kts | 253° |
| 2026-05-05 08:48 | 32.82085 | 133.25413 | 26179 ft | 407 kts | 253° |
| 2026-05-05 08:48 | 32.81274 | 133.22186 | 26199 ft | 407 kts | 253° |
| 2026-05-05 08:49 | 32.80476 | 133.19013 | 26191 ft | 408 kts | 253° |
| 2026-05-05 08:49 | 32.79669 | 133.15808 | 26184 ft | 408 kts | 253° |
| 2026-05-05 08:49 | 32.78855 | 133.12578 | 26181 ft | 408 kts | 253° |
| 2026-05-05 08:49 | 32.78051 | 133.09389 | 26182 ft | 408 kts | 253° |
| 2026-05-05 08:50 | 32.77235 | 133.06161 | 26184 ft | 408 kts | 253° |
| 2026-05-05 08:50 | 32.76419 | 133.02935 | 26183 ft | 408 kts | 252° |
| 2026-05-05 08:50 | 32.75473 | 132.99757 | 26193 ft | 408 kts | 247° |
| 2026-05-05 08:50 | 32.74225 | 132.96727 | 26167 ft | 410 kts | 240° |
| 2026-05-05 08:51 | 32.72754 | 132.93907 | 26176 ft | 409 kts | 239° |
| 2026-05-05 08:51 | 32.71238 | 132.91031 | 26186 ft | 409 kts | 240° |
| 2026-05-05 08:51 | 32.69741 | 132.88167 | 26183 ft | 409 kts | 240° |
| 2026-05-05 08:51 | 32.68290 | 132.85364 | 26179 ft | 409 kts | 240° |
| 2026-05-05 08:52 | 32.66782 | 132.82435 | 26180 ft | 408 kts | 240° |
| 2026-05-05 08:52 | 32.65307 | 132.79558 | 26179 ft | 408 kts | 240° |
| 2026-05-05 08:52 | 32.63886 | 132.76785 | 26179 ft | 408 kts | 240° |
| 2026-05-05 08:52 | 32.62405 | 132.73895 | 26180 ft | 408 kts | 240° |
| 2026-05-05 08:53 | 32.60957 | 132.71070 | 26179 ft | 408 kts | 240° |
| 2026-05-05 08:53 | 32.59496 | 132.68223 | 26177 ft | 408 kts | 240° |
| 2026-05-05 08:53 | 32.58018 | 132.65345 | 26177 ft | 408 kts | 240° |
| 2026-05-05 08:53 | 32.56552 | 132.62492 | 26176 ft | 408 kts | 240° |
| 2026-05-05 08:54 | 32.55090 | 132.59650 | 26188 ft | 408 kts | 240° |
| 2026-05-05 08:54 | 32.53663 | 132.56877 | 26154 ft | 408 kts | 240° |
| 2026-05-05 08:54 | 32.52185 | 132.54010 | 26167 ft | 408 kts | 240° |
| 2026-05-05 08:54 | 32.50704 | 132.51137 | 26171 ft | 408 kts | 240° |
| 2026-05-05 08:55 | 32.49242 | 132.48304 | 26175 ft | 408 kts | 240° |
| 2026-05-05 08:55 | 32.47800 | 132.45512 | 26176 ft | 408 kts | 240° |
| 2026-05-05 08:55 | 32.46333 | 132.42672 | 26172 ft | 409 kts | 240° |
| 2026-05-05 08:55 | 32.44864 | 132.39832 | 26191 ft | 409 kts | 240° |
| 2026-05-05 08:56 | 32.43380 | 132.36962 | 26180 ft | 409 kts | 240° |
| 2026-05-05 08:56 | 32.41888 | 132.34082 | 26161 ft | 409 kts | 240° |
| 2026-05-05 08:56 | 32.40419 | 132.31247 | 26167 ft | 406 kts | 240° |
| 2026-05-05 08:56 | 32.38956 | 132.28428 | 26135 ft | 399 kts | 240° |
| 2026-05-05 08:57 | 32.37508 | 132.25638 | 25649 ft | 399 kts | 240° |
| 2026-05-05 08:57 | 32.36060 | 132.22852 | 25191 ft | 396 kts | 240° |
| 2026-05-05 08:57 | 32.34638 | 132.20116 | 24732 ft | 395 kts | 240° |
| 2026-05-05 08:57 | 32.33198 | 132.17350 | 24294 ft | 390 kts | 240° |
| 2026-05-05 08:58 | 32.31787 | 132.14641 | 23833 ft | 385 kts | 240° |
| 2026-05-05 08:58 | 32.30379 | 132.11938 | 23321 ft | 388 kts | 240° |
| 2026-05-05 08:58 | 32.28957 | 132.09207 | 22800 ft | 391 kts | 240° |
| 2026-05-05 08:58 | 32.27526 | 132.06461 | 22288 ft | 394 kts | 240° |
| 2026-05-05 08:59 | 32.26087 | 132.03702 | 21780 ft | 394 kts | 240° |
| 2026-05-05 08:59 | 32.24657 | 132.00966 | 21267 ft | 390 kts | 239° |
| 2026-05-05 08:59 | 32.23232 | 131.98255 | 20790 ft | 385 kts | 239° |
| 2026-05-05 08:59 | 32.21846 | 131.95612 | 20316 ft | 382 kts | 239° |
| 2026-05-05 09:00 | 32.20478 | 131.92995 | 19825 ft | 382 kts | 239° |
| 2026-05-05 09:00 | 32.19081 | 131.90322 | 19372 ft | 382 kts | 239° |
| 2026-05-05 09:00 | 32.17694 | 131.87669 | 18902 ft | 382 kts | 239° |
| 2026-05-05 09:00 | 32.16292 | 131.84996 | 18445 ft | 382 kts | 238° |
| 2026-05-05 09:01 | 32.14889 | 131.82325 | 17916 ft | 383 kts | 238° |
| 2026-05-05 09:01 | 32.13500 | 131.79680 | 17417 ft | 384 kts | 238° |
| 2026-05-05 09:01 | 32.12089 | 131.76999 | 16914 ft | 384 kts | 238° |
| 2026-05-05 09:01 | 32.10678 | 131.74317 | 16404 ft | 382 kts | 238° |
| 2026-05-05 09:02 | 32.09278 | 131.71656 | 15902 ft | 378 kts | 237° |
| 2026-05-05 09:02 | 32.07902 | 131.69039 | 15405 ft | 374 kts | 237° |
| 2026-05-05 09:02 | 32.06538 | 131.66447 | 14919 ft | 368 kts | 237° |
| 2026-05-05 09:02 | 32.05223 | 131.63947 | 14430 ft | 357 kts | 237° |
| 2026-05-05 09:03 | 32.03931 | 131.61493 | 13964 ft | 348 kts | 236° |
| 2026-05-05 09:03 | 32.02664 | 131.59088 | 13434 ft | 340 kts | 236° |
| 2026-05-05 09:03 | 32.01426 | 131.56739 | 12913 ft | 334 kts | 236° |
| 2026-05-05 09:03 | 32.00223 | 131.54458 | 12409 ft | 327 kts | 237° |
| 2026-05-05 09:04 | 31.99047 | 131.52230 | 11904 ft | 322 kts | 236° |
| 2026-05-05 09:04 | 31.97885 | 131.50030 | 11747 ft | 306 kts | 236° |
| 2026-05-05 09:04 | 31.96804 | 131.47984 | 11713 ft | 288 kts | 236° |
| 2026-05-05 09:04 | 31.95773 | 131.46036 | 11690 ft | 274 kts | 236° |
| 2026-05-05 09:05 | 31.94926 | 131.44014 | 11298 ft | 280 kts | 256° |
| 2026-05-05 09:05 | 31.94849 | 131.41720 | 10984 ft | 283 kts | 272° |
| 2026-05-05 09:05 | 31.95058 | 131.39414 | 10636 ft | 285 kts | 275° |
| 2026-05-05 09:05 | 31.95307 | 131.37090 | 10289 ft | 286 kts | 275° |
| 2026-05-05 09:06 | 31.95559 | 131.34765 | 10074 ft | 283 kts | 275° |
| 2026-05-05 09:06 | 31.95799 | 131.32513 | 10026 ft | 273 kts | 275° |
| 2026-05-05 09:06 | 31.96028 | 131.30309 | 10057 ft | 268 kts | 274° |
| 2026-05-05 09:06 | 31.96246 | 131.28158 | 10040 ft | 269 kts | 274° |
| 2026-05-05 09:07 | 31.96460 | 131.26009 | 10036 ft | 271 kts | 274° |
| 2026-05-05 09:07 | 31.96671 | 131.23882 | 10055 ft | 272 kts | 274° |
| 2026-05-05 09:07 | 31.96888 | 131.21674 | 10057 ft | 272 kts | 274° |
| 2026-05-05 09:07 | 31.97103 | 131.19480 | 10053 ft | 272 kts | 274° |
| 2026-05-05 09:08 | 31.97320 | 131.17268 | 10053 ft | 272 kts | 274° |
| 2026-05-05 09:08 | 31.97535 | 131.15055 | 10053 ft | 272 kts | 274° |
| 2026-05-05 09:08 | 31.97748 | 131.12871 | 10065 ft | 272 kts | 274° |
| 2026-05-05 09:08 | 31.97963 | 131.10661 | 10059 ft | 272 kts | 273° |
| 2026-05-05 09:09 | 31.98177 | 131.08444 | 10054 ft | 272 kts | 274° |
| 2026-05-05 09:09 | 31.98390 | 131.06227 | 10049 ft | 272 kts | 274° |
| 2026-05-05 09:09 | 31.98603 | 131.04008 | 10050 ft | 272 kts | 274° |
| 2026-05-05 09:09 | 31.98814 | 131.01792 | 10051 ft | 272 kts | 273° |
| 2026-05-05 09:10 | 31.99022 | 130.99587 | 10043 ft | 271 kts | 273° |
| 2026-05-05 09:10 | 31.99229 | 130.97408 | 10042 ft | 271 kts | 273° |
| 2026-05-05 09:10 | 31.99438 | 130.95200 | 9956 ft | 273 kts | 273° |
| 2026-05-05 09:10 | 31.99648 | 130.92968 | 9523 ft | 271 kts | 274° |
| 2026-05-05 09:11 | 31.99854 | 130.90814 | 9168 ft | 259 kts | 274° |
| 2026-05-05 09:11 | 32.00051 | 130.88739 | 8761 ft | 250 kts | 274° |
| 2026-05-05 09:11 | 32.00241 | 130.86729 | 8380 ft | 243 kts | 274° |
| 2026-05-05 09:11 | 32.00426 | 130.84768 | 8007 ft | 239 kts | 274° |
| 2026-05-05 09:12 | 32.00607 | 130.82832 | 7650 ft | 239 kts | 274° |
| 2026-05-05 09:12 | 32.00789 | 130.80872 | 7294 ft | 241 kts | 273° |
| 2026-05-05 09:12 | 32.00971 | 130.78917 | 7083 ft | 239 kts | 274° |
| 2026-05-05 09:12 | 32.01152 | 130.76983 | 7065 ft | 242 kts | 274° |
| 2026-05-05 09:13 | 32.01335 | 130.75018 | 6785 ft | 241 kts | 274° |
| 2026-05-05 09:13 | 32.01514 | 130.73094 | 6323 ft | 241 kts | 273° |
| 2026-05-05 09:13 | 32.01570 | 130.71123 | 5798 ft | 240 kts | 257° |
| 2026-05-05 09:13 | 32.00910 | 130.69344 | 5317 ft | 237 kts | 236° |
| 2026-05-05 09:14 | 32.00086 | 130.67690 | 5078 ft | 227 kts | 237° |
| 2026-05-05 09:14 | 31.99347 | 130.66192 | 5038 ft | 209 kts | 236° |
| 2026-05-05 09:14 | 31.98637 | 130.64768 | 4954 ft | 199 kts | 237° |
| 2026-05-05 09:14 | 31.97931 | 130.63348 | 4532 ft | 204 kts | 237° |
| 2026-05-05 09:15 | 31.97010 | 130.62098 | 3992 ft | 202 kts | 206° |
| 2026-05-05 09:15 | 31.95695 | 130.61813 | 3626 ft | 187 kts | 167° |
| 2026-05-05 09:15 | 31.94560 | 130.62353 | 3588 ft | 168 kts | 151° |
| 2026-05-05 09:15 | 31.93590 | 130.62983 | 3555 ft | 159 kts | 149° |
| 2026-05-05 09:16 | 31.92589 | 130.63657 | 3557 ft | 167 kts | 149° |
| 2026-05-05 09:16 | 31.91586 | 130.64337 | 3384 ft | 168 kts | 149° |
| 2026-05-05 09:16 | 31.90586 | 130.65013 | 3150 ft | 164 kts | 149° |
| 2026-05-05 09:16 | 31.89622 | 130.65665 | 2945 ft | 156 kts | 149° |
| 2026-05-05 09:17 | 31.88682 | 130.66301 | 2715 ft | 155 kts | 148° |
| 2026-05-05 09:17 | 31.87782 | 130.66909 | 2489 ft | 152 kts | 147° |
| 2026-05-05 09:17 | 31.86855 | 130.67537 | 2283 ft | 156 kts | 148° |
| 2026-05-05 09:17 | 31.85916 | 130.68169 | 2123 ft | 154 kts | 148° |
| 2026-05-05 09:18 | 31.84991 | 130.68779 | 1871 ft | 152 kts | 147° |
| 2026-05-05 09:18 | 31.84075 | 130.69418 | 1587 ft | 152 kts | 146° |
| 2026-05-05 09:18 | 31.83165 | 130.70033 | 1404 ft | 149 kts | 149° |
| 2026-05-05 09:18 | 31.82249 | 130.70646 | 1165 ft | 154 kts | 150° |
| 2026-05-05 09:19 | 31.81362 | 130.71245 | 940 ft | 143 kts | 150° |
| 2026-05-05 09:19 | 31.80574 | 130.71777 | 910 ft | 118 kts | 149° |
| 2026-05-05 09:19 | 31.79995 | 130.72168 | 894 ft | 74 kts | 150° |
| 2026-05-05 09:19 | 31.79679 | 130.72382 | 887 ft | 34 kts | 150° |
| 2026-05-05 09:20 | 31.79539 | 130.72427 | 885 ft | 20 kts | 214° |
| 2026-05-05 09:20 | 31.79504 | 130.72290 | 886 ft | 18 kts | 301° |
| 2026-05-05 09:20 | 31.79571 | 130.72232 | 887 ft | 18 kts | 330° |
| 2026-05-05 09:20 | 31.79677 | 130.72160 | 889 ft | 17 kts | 330° |
| 2026-05-05 09:21 | 31.79780 | 130.72092 | 891 ft | 17 kts | 330° |
| 2026-05-05 09:21 | 31.79879 | 130.72024 | 893 ft | 16 kts | 330° |
| 2026-05-05 09:21 | 31.79974 | 130.71960 | 895 ft | 15 kts | 330° |
| 2026-05-05 09:21 | 31.80065 | 130.71899 | 897 ft | 15 kts | 330° |
| 2026-05-05 09:22 | 31.80151 | 130.71840 | 899 ft | 14 kts | 330° |
| 2026-05-05 09:22 | 31.80184 | 130.71772 | 900 ft | 10 kts | 236° |
| 2026-05-05 09:22 | 31.80147 | 130.71702 | 903 ft | 10 kts | 240° |
| 2026-05-05 09:22 | 31.80129 | 130.71666 | 900 ft | 0 kts | 240° |